Terminal Aerodrome Forecast
Issued by NWS Grand Forks, ND

Home | Current Version | Previous Version | Text Only | Print | Product List | Glossary Off
Versions: 1 2 3 4 5 6 7 8 9 10 11 12 13 14 15 16 17 18 19 20 21 22 23 24

000
FTUS43 KFGF 051436 AAA
TAFGFK
TAF AMD
KGFK 051436Z 0515/0612 11006KT 6SM BR OVC004
      TEMPO 0515/0516 1SM BR
     FM052100 05009KT 1SM -SN OVC008
     FM060000 03011KT 1/2SM SN OVC003
     FM060300 36012KT 1SM -SN OVC008
     FM060600 34013KT 1 1/2SM -SN OVC008=

USA.gov is the U.S. government's official web portal to all federal, state and local government web resources and services.